sensor_id;sensor_type;location;lat;lon;timestamp;pressure;altitude;pressure_sealevel;temperature;humidity
18275;BME280;19470;49.322;7.218;2022-08-19T00:00:47;98419.94;;;20.61;100.00
18275;BME280;19470;49.322;7.218;2022-08-19T00:03:15;98431.31;;;20.66;100.00
18275;BME280;19470;49.322;7.218;2022-08-19T00:05:43;98424.34;;;20.74;100.00
18275;BME280;19470;49.322;7.218;2022-08-19T00:08:10;98422.63;;;20.70;100.00
18275;BME280;19470;49.322;7.218;2022-08-19T00:10:37;98424.34;;;20.57;100.00
18275;BME280;19470;49.322;7.218;2022-08-19T00:13:03;98411.34;;;20.59;100.00
18275;BME280;19470;49.322;7.218;2022-08-19T00:15:30;98412.47;;;20.58;100.00
18275;BME280;19470;49.322;7.218;2022-08-19T00:17:56;98408.88;;;20.71;100.00
18275;BME280;19470;49.322;7.218;2022-08-19T00:20:23;98398.72;;;21.03;100.00
18275;BME280;19470;49.322;7.218;2022-08-19T00:22:51;98391.59;;;21.07;100.00
18275;BME280;19470;49.322;7.218;2022-08-19T00:25:17;98396.84;;;20.95;100.00
18275;BME280;19470;49.322;7.218;2022-08-19T00:27:44;98393.19;;;20.73;100.00
18275;BME280;19470;49.322;7.218;2022-08-19T00:30:11;98401.88;;;20.70;100.00
18275;BME280;19470;49.322;7.218;2022-08-19T00:32:38;98399.59;;;20.37;100.00
18275;BME280;19470;49.322;7.218;2022-08-19T00:35:06;98402.53;;;20.27;100.00
18275;BME280;19470;49.322;7.218;2022-08-19T00:37:33;98407.16;;;20.35;100.00
18275;BME280;19470;49.322;7.218;2022-08-19T00:40:04;98409.03;;;20.26;100.00
18275;BME280;19470;49.322;7.218;2022-08-19T00:42:31;98412.72;;;20.39;100.00
18275;BME280;19470;49.322;7.218;2022-08-19T00:44:58;98413.69;;;20.43;100.00
18275;BME280;19470;49.322;7.218;2022-08-19T00:47:25;98407.00;;;20.40;100.00
18275;BME280;19470;49.322;7.218;2022-08-19T00:49:54;98409.22;;;20.30;100.00
18275;BME280;19470;49.322;7.218;2022-08-19T00:52:24;98397.97;;;20.36;100.00
18275;BME280;19470;49.322;7.218;2022-08-19T00:54:52;98398.78;;;20.37;100.00
18275;BME280;19470;49.322;7.218;2022-08-19T00:57:25;98397.53;;;20.43;100.00
18275;BME280;19470;49.322;7.218;2022-08-19T00:59:54;98385.22;;;20.51;100.00
18275;BME280;19470;49.322;7.218;2022-08-19T01:02:22;98390.13;;;20.49;100.00
18275;BME280;19470;49.322;7.218;2022-08-19T01:04:48;98386.25;;;20.32;100.00
18275;BME280;19470;49.322;7.218;2022-08-19T01:07:15;98383.91;;;20.39;100.00
18275;BME280;19470;49.322;7.218;2022-08-19T01:09:42;98386.44;;;20.36;100.00
18275;BME280;19470;49.322;7.218;2022-08-19T01:12:08;98383.78;;;20.45;100.00
18275;BME280;19470;49.322;7.218;2022-08-19T01:14:38;98382.19;;;20.43;100.00
18275;BME280;19470;49.322;7.218;2022-08-19T01:17:05;98385.03;;;20.38;100.00
18275;BME280;19470;49.322;7.218;2022-08-19T01:19:36;98397.72;;;20.47;100.00
18275;BME280;19470;49.322;7.218;2022-08-19T01:22:08;98380.50;;;20.65;100.00
18275;BME280;19470;49.322;7.218;2022-08-19T01:24:40;98384.47;;;20.59;100.00
18275;BME280;19470;49.322;7.218;2022-08-19T01:27:08;98387.91;;;20.51;100.00
18275;BME280;19470;49.322;7.218;2022-08-19T01:29:37;98392.06;;;20.74;100.00
18275;BME280;19470;49.322;7.218;2022-08-19T01:32:04;98384.66;;;20.80;100.00
18275;BME280;19470;49.322;7.218;2022-08-19T01:34:31;98389.69;;;20.64;100.00
18275;BME280;19470;49.322;7.218;2022-08-19T01:37:00;98396.97;;;20.63;100.00
18275;BME280;19470;49.322;7.218;2022-08-19T01:39:32;98395.09;;;20.73;100.00
18275;BME280;19470;49.322;7.218;2022-08-19T01:42:00;98405.69;;;20.69;100.00
18275;BME280;19470;49.322;7.218;2022-08-19T01:44:28;98406.31;;;20.66;100.00
18275;BME280;19470;49.322;7.218;2022-08-19T01:46:55;98408.81;;;20.54;100.00
18275;BME280;19470;49.322;7.218;2022-08-19T01:49:23;98407.41;;;20.48;100.00
18275;BME280;19470;49.322;7.218;2022-08-19T01:51:53;98406.88;;;20.46;100.00
18275;BME280;19470;49.322;7.218;2022-08-19T01:54:22;98397.38;;;20.39;100.00
18275;BME280;19470;49.322;7.218;2022-08-19T01:56:50;98409.63;;;20.63;100.00
18275;BME280;19470;49.322;7.218;2022-08-19T01:59:20;98389.88;;;20.76;100.00
18275;BME280;19470;49.322;7.218;2022-08-19T02:01:49;98398.63;;;20.33;100.00
18275;BME280;19470;49.322;7.218;2022-08-19T02:04:15;98405.47;;;20.00;100.00
18275;BME280;19470;49.322;7.218;2022-08-19T02:06:42;98405.91;;;20.41;100.00
18275;BME280;19470;49.322;7.218;2022-08-19T02:09:08;98403.13;;;20.64;100.00
18275;BME280;19470;49.322;7.218;2022-08-19T02:11:36;98401.41;;;20.68;100.00
18275;BME280;19470;49.322;7.218;2022-08-19T02:14:05;98402.47;;;20.50;100.00
18275;BME280;19470;49.322;7.218;2022-08-19T02:16:35;98400.75;;;20.54;100.00
18275;BME280;19470;49.322;7.218;2022-08-19T02:19:02;98404.72;;;20.65;100.00
18275;BME280;19470;49.322;7.218;2022-08-19T02:21:29;98403.78;;;20.70;100.00
18275;BME280;19470;49.322;7.218;2022-08-19T02:23:56;98411.47;;;20.45;100.00
18275;BME280;19470;49.322;7.218;2022-08-19T02:26:23;98405.38;;;20.62;100.00
18275;BME280;19470;49.322;7.218;2022-08-19T02:28:51;98404.31;;;20.40;100.00
18275;BME280;19470;49.322;7.218;2022-08-19T02:31:21;98405.38;;;20.62;100.00
18275;BME280;19470;49.322;7.218;2022-08-19T02:33:49;98404.16;;;20.37;100.00
18275;BME280;19470;49.322;7.218;2022-08-19T02:36:18;98409.38;;;20.33;100.00
18275;BME280;19470;49.322;7.218;2022-08-19T02:38:44;98410.59;;;20.27;100.00
18275;BME280;19470;49.322;7.218;2022-08-19T02:41:13;98408.06;;;20.22;100.00
18275;BME280;19470;49.322;7.218;2022-08-19T02:43:40;98417.03;;;20.09;100.00
18275;BME280;19470;49.322;7.218;2022-08-19T02:46:12;98415.88;;;19.48;100.00
18275;BME280;19470;49.322;7.218;2022-08-19T02:48:39;98416.88;;;19.29;100.00
18275;BME280;19470;49.322;7.218;2022-08-19T02:51:07;98421.84;;;19.89;100.00
18275;BME280;19470;49.322;7.218;2022-08-19T02:53:33;98420.16;;;20.02;100.00
18275;BME280;19470;49.322;7.218;2022-08-19T02:56:00;98418.72;;;19.96;100.00
18275;BME280;19470;49.322;7.218;2022-08-19T02:58:26;98423.78;;;19.98;100.00
18275;BME280;19470;49.322;7.218;2022-08-19T03:00:55;98421.38;;;19.87;100.00
18275;BME280;19470;49.322;7.218;2022-08-19T03:03:22;98419.25;;;20.07;100.00
18275;BME280;19470;49.322;7.218;2022-08-19T03:05:48;98412.81;;;20.25;100.00
18275;BME280;19470;49.322;7.218;2022-08-19T03:08:16;98415.44;;;20.08;100.00
18275;BME280;19470;49.322;7.218;2022-08-19T03:10:44;98421.66;;;20.17;100.00
18275;BME280;19470;49.322;7.218;2022-08-19T03:13:13;98424.16;;;20.05;100.00
18275;BME280;19470;49.322;7.218;2022-08-19T03:15:41;98422.16;;;19.88;100.00
18275;BME280;19470;49.322;7.218;2022-08-19T03:18:08;98423.69;;;19.80;100.00
18275;BME280;19470;49.322;7.218;2022-08-19T03:20:40;98427.94;;;19.73;100.00
18275;BME280;19470;49.322;7.218;2022-08-19T03:23:06;98431.94;;;19.61;100.00
18275;BME280;19470;49.322;7.218;2022-08-19T03:25:38;98424.13;;;19.51;100.00
18275;BME280;19470;49.322;7.218;2022-08-19T03:28:06;98420.25;;;19.88;100.00
18275;BME280;19470;49.322;7.218;2022-08-19T03:30:33;98428.94;;;19.85;100.00
18275;BME280;19470;49.322;7.218;2022-08-19T03:32:59;98425.88;;;19.56;100.00
18275;BME280;19470;49.322;7.218;2022-08-19T03:35:27;98423.84;;;19.53;100.00
18275;BME280;19470;49.322;7.218;2022-08-19T03:37:53;98423.16;;;19.70;100.00
18275;BME280;19470;49.322;7.218;2022-08-19T03:40:21;98437.81;;;19.86;100.00
18275;BME280;19470;49.322;7.218;2022-08-19T03:42:49;98438.16;;;19.93;100.00
18275;BME280;19470;49.322;7.218;2022-08-19T03:45:15;98436.66;;;19.78;100.00
18275;BME280;19470;49.322;7.218;2022-08-19T03:47:42;98440.06;;;19.70;100.00
18275;BME280;19470;49.322;7.218;2022-08-19T03:50:09;98439.81;;;19.58;100.00
18275;BME280;19470;49.322;7.218;2022-08-19T03:52:35;98439.88;;;19.22;100.00
18275;BME280;19470;49.322;7.218;2022-08-19T03:55:03;98443.69;;;19.07;100.00
18275;BME280;19470;49.322;7.218;2022-08-19T03:57:29;98449.91;;;18.66;100.00
18275;BME280;19470;49.322;7.218;2022-08-19T03:59:58;98441.50;;;19.09;100.00
18275;BME280;19470;49.322;7.218;2022-08-19T04:02:25;98446.28;;;19.34;100.00
18275;BME280;19470;49.322;7.218;2022-08-19T04:04:53;98449.44;;;19.36;100.00
18275;BME280;19470;49.322;7.218;2022-08-19T04:07:20;98443.38;;;19.45;100.00
18275;BME280;19470;49.322;7.218;2022-08-19T04:09:47;98444.88;;;19.37;100.00
18275;BME280;19470;49.322;7.218;2022-08-19T04:12:14;98436.75;;;19.06;100.00
18275;BME280;19470;49.322;7.218;2022-08-19T04:14:41;98431.19;;;19.02;100.00
18275;BME280;19470;49.322;7.218;2022-08-19T04:17:08;98431.63;;;19.18;100.00
18275;BME280;19470;49.322;7.218;2022-08-19T04:19:36;98433.31;;;19.14;100.00
18275;BME280;19470;49.322;7.218;2022-08-19T04:22:04;98439.66;;;19.18;100.00
18275;BME280;19470;49.322;7.218;2022-08-19T04:24:31;98437.31;;;19.39;100.00
18275;BME280;19470;49.322;7.218;2022-08-19T04:26:59;98436.75;;;19.51;100.00
18275;BME280;19470;49.322;7.218;2022-08-19T04:29:25;98433.66;;;19.57;100.00
18275;BME280;19470;49.322;7.218;2022-08-19T04:31:53;98435.78;;;19.47;100.00
18275;BME280;19470;49.322;7.218;2022-08-19T04:34:25;98438.16;;;19.26;100.00
18275;BME280;19470;49.322;7.218;2022-08-19T04:36:53;98438.69;;;19.14;100.00
18275;BME280;19470;49.322;7.218;2022-08-19T04:39:23;98442.13;;;19.51;100.00
18275;BME280;19470;49.322;7.218;2022-08-19T04:42:11;98441.22;;;19.33;100.00
18275;BME280;19470;49.322;7.218;2022-08-19T04:44:56;98441.94;;;18.88;100.00
18275;BME280;19470;49.322;7.218;2022-08-19T04:47:23;98449.69;;;18.90;100.00
18275;BME280;19470;49.322;7.218;2022-08-19T04:49:51;98448.94;;;19.12;100.00
18275;BME280;19470;49.322;7.218;2022-08-19T04:52:18;98451.59;;;19.48;100.00
18275;BME280;19470;49.322;7.218;2022-08-19T04:54:45;98456.50;;;19.69;100.00
18275;BME280;19470;49.322;7.218;2022-08-19T04:57:11;98459.66;;;19.71;100.00
18275;BME280;19470;49.322;7.218;2022-08-19T04:59:39;98456.28;;;19.42;100.00
18275;BME280;19470;49.322;7.218;2022-08-19T05:02:07;98465.09;;;19.34;100.00
18275;BME280;19470;49.322;7.218;2022-08-19T05:04:35;98454.88;;;19.23;100.00
18275;BME280;19470;49.322;7.218;2022-08-19T05:07:06;98460.88;;;19.42;100.00
18275;BME280;19470;49.322;7.218;2022-08-19T05:09:32;98455.84;;;19.63;100.00
18275;BME280;19470;49.322;7.218;2022-08-19T05:12:00;98460.47;;;19.49;100.00
18275;BME280;19470;49.322;7.218;2022-08-19T05:14:26;98464.91;;;19.53;100.00
18275;BME280;19470;49.322;7.218;2022-08-19T05:16:54;98472.19;;;19.17;100.00
18275;BME280;19470;49.322;7.218;2022-08-19T05:19:20;98466.19;;;18.97;100.00
18275;BME280;19470;49.322;7.218;2022-08-19T05:22:06;98463.47;;;19.33;100.00
18275;BME280;19470;49.322;7.218;2022-08-19T05:24:49;98459.19;;;19.10;100.00
18275;BME280;19470;49.322;7.218;2022-08-19T05:27:16;98463.91;;;19.27;100.00
18275;BME280;19470;49.322;7.218;2022-08-19T05:29:42;98469.97;;;19.55;100.00
18275;BME280;19470;49.322;7.218;2022-08-19T05:32:09;98474.41;;;19.73;100.00
18275;BME280;19470;49.322;7.218;2022-08-19T05:34:36;98474.88;;;19.75;100.00
18275;BME280;19470;49.322;7.218;2022-08-19T05:37:05;98483.91;;;19.79;100.00
18275;BME280;19470;49.322;7.218;2022-08-19T05:39:34;98480.78;;;20.17;100.00
18275;BME280;19470;49.322;7.218;2022-08-19T05:42:03;98481.28;;;19.88;100.00
18275;BME280;19470;49.322;7.218;2022-08-19T05:44:34;98482.72;;;19.63;100.00
18275;BME280;19470;49.322;7.218;2022-08-19T05:47:02;98479.38;;;19.44;100.00
18275;BME280;19470;49.322;7.218;2022-08-19T05:49:31;98473.50;;;19.41;100.00
18275;BME280;19470;49.322;7.218;2022-08-19T05:51:58;98473.13;;;19.57;100.00
18275;BME280;19470;49.322;7.218;2022-08-19T05:54:26;98476.75;;;19.75;100.00
18275;BME280;19470;49.322;7.218;2022-08-19T05:56:53;98477.00;;;20.18;100.00
18275;BME280;19470;49.322;7.218;2022-08-19T05:59:20;98481.50;;;20.31;100.00
18275;BME280;19470;49.322;7.218;2022-08-19T06:01:49;98488.63;;;20.36;100.00
18275;BME280;19470;49.322;7.218;2022-08-19T06:04:17;98494.94;;;20.62;100.00
18275;BME280;19470;49.322;7.218;2022-08-19T06:06:44;98503.88;;;20.18;100.00
18275;BME280;19470;49.322;7.218;2022-08-19T06:09:11;98504.66;;;20.10;100.00
18275;BME280;19470;49.322;7.218;2022-08-19T06:11:42;98500.19;;;20.36;100.00
18275;BME280;19470;49.322;7.218;2022-08-19T06:14:11;98514.81;;;19.90;100.00
18275;BME280;19470;49.322;7.218;2022-08-19T06:16:40;98518.47;;;19.95;100.00
18275;BME280;19470;49.322;7.218;2022-08-19T06:19:09;98520.72;;;20.01;100.00
18275;BME280;19470;49.322;7.218;2022-08-19T06:21:37;98521.47;;;19.93;100.00
18275;BME280;19470;49.322;7.218;2022-08-19T06:24:07;98529.31;;;20.12;100.00
18275;BME280;19470;49.322;7.218;2022-08-19T06:26:35;98529.28;;;20.34;100.00
18275;BME280;19470;49.322;7.218;2022-08-19T06:29:05;98531.50;;;20.63;100.00
18275;BME280;19470;49.322;7.218;2022-08-19T06:31:34;98535.66;;;20.78;100.00
18275;BME280;19470;49.322;7.218;2022-08-19T06:34:02;98539.25;;;21.13;100.00
18275;BME280;19470;49.322;7.218;2022-08-19T06:36:31;98531.50;;;21.29;100.00
18275;BME280;19470;49.322;7.218;2022-08-19T06:38:59;98538.16;;;21.23;100.00
18275;BME280;19470;49.322;7.218;2022-08-19T06:41:27;98537.34;;;21.23;100.00
18275;BME280;19470;49.322;7.218;2022-08-19T06:43:54;98539.78;;;21.59;100.00
18275;BME280;19470;49.322;7.218;2022-08-19T06:46:22;98544.84;;;21.52;100.00
18275;BME280;19470;49.322;7.218;2022-08-19T06:48:49;98552.06;;;21.25;100.00
18275;BME280;19470;49.322;7.218;2022-08-19T06:51:19;98555.44;;;21.39;100.00
18275;BME280;19470;49.322;7.218;2022-08-19T06:53:45;98552.13;;;21.42;100.00
18275;BME280;19470;49.322;7.218;2022-08-19T06:56:13;98550.41;;;21.38;100.00
18275;BME280;19470;49.322;7.218;2022-08-19T06:58:40;98548.19;;;21.57;100.00
18275;BME280;19470;49.322;7.218;2022-08-19T07:01:07;98556.72;;;21.68;100.00
18275;BME280;19470;49.322;7.218;2022-08-19T07:03:36;98560.06;;;21.48;100.00
18275;BME280;19470;49.322;7.218;2022-08-19T07:06:04;98553.66;;;21.17;100.00
18275;BME280;19470;49.322;7.218;2022-08-19T07:08:32;98547.84;;;21.67;100.00
18275;BME280;19470;49.322;7.218;2022-08-19T07:10:59;98553.56;;;21.75;100.00
18275;BME280;19470;49.322;7.218;2022-08-19T07:13:25;98543.44;;;21.72;100.00
18275;BME280;19470;49.322;7.218;2022-08-19T07:15:52;98548.53;;;22.46;100.00
18275;BME280;19470;49.322;7.218;2022-08-19T07:18:19;98546.47;;;22.52;100.00
18275;BME280;19470;49.322;7.218;2022-08-19T07:20:48;98544.91;;;22.80;100.00
18275;BME280;19470;49.322;7.218;2022-08-19T07:23:14;98547.53;;;22.68;100.00
18275;BME280;19470;49.322;7.218;2022-08-19T07:25:40;98543.38;;;23.00;100.00
18275;BME280;19470;49.322;7.218;2022-08-19T07:28:07;98544.72;;;23.44;100.00
18275;BME280;19470;49.322;7.218;2022-08-19T07:30:36;98553.06;;;23.52;100.00
18275;BME280;19470;49.322;7.218;2022-08-19T07:33:03;98550.06;;;24.07;100.00
18275;BME280;19470;49.322;7.218;2022-08-19T07:35:30;98550.06;;;24.40;100.00
18275;BME280;19470;49.322;7.218;2022-08-19T07:37:59;98554.75;;;24.31;100.00
18275;BME280;19470;49.322;7.218;2022-08-19T07:40:27;98551.44;;;24.83;100.00
18275;BME280;19470;49.322;7.218;2022-08-19T07:42:54;98563.19;;;24.99;100.00
18275;BME280;19470;49.322;7.218;2022-08-19T07:45:20;98559.59;;;25.08;100.00
18275;BME280;19470;49.322;7.218;2022-08-19T07:47:47;98559.81;;;25.27;100.00
18275;BME280;19470;49.322;7.218;2022-08-19T07:50:13;98560.19;;;25.54;100.00
18275;BME280;19470;49.322;7.218;2022-08-19T07:52:40;98564.50;;;26.11;100.00
18275;BME280;19470;49.322;7.218;2022-08-19T07:55:10;98553.44;;;25.47;100.00
18275;BME280;19470;49.322;7.218;2022-08-19T07:57:37;98553.94;;;25.25;98.03
18275;BME280;19470;49.322;7.218;2022-08-19T08:00:06;98548.03;;;24.50;100.00
18275;BME280;19470;49.322;7.218;2022-08-19T08:02:32;98548.53;;;24.76;100.00
18275;BME280;19470;49.322;7.218;2022-08-19T08:04:59;98550.09;;;25.02;99.91
18275;BME280;19470;49.322;7.218;2022-08-19T08:07:43;98551.00;;;25.18;100.00
18275;BME280;19470;49.322;7.218;2022-08-19T08:10:28;98550.34;;;24.84;100.00
18275;BME280;19470;49.322;7.218;2022-08-19T08:12:55;98548.63;;;25.29;95.07
18275;BME280;19470;49.322;7.218;2022-08-19T08:15:21;98542.78;;;26.11;92.08
18275;BME280;19470;49.322;7.218;2022-08-19T08:17:48;98534.50;;;26.19;88.13
18275;BME280;19470;49.322;7.218;2022-08-19T08:20:15;98538.59;;;25.97;89.41
18275;BME280;19470;49.322;7.218;2022-08-19T08:22:43;98534.72;;;25.30;90.51
18275;BME280;19470;49.322;7.218;2022-08-19T08:25:29;98546.94;;;25.12;91.72
18275;BME280;19470;49.322;7.218;2022-08-19T08:27:56;98546.97;;;25.92;91.95
18275;BME280;19470;49.322;7.218;2022-08-19T08:30:25;98546.03;;;26.00;86.89
18275;BME280;19470;49.322;7.218;2022-08-19T08:32:52;98542.31;;;26.21;89.22
18275;BME280;19470;49.322;7.218;2022-08-19T08:35:21;98539.31;;;27.21;84.68
18275;BME280;19470;49.322;7.218;2022-08-19T08:37:49;98547.25;;;25.75;86.59
18275;BME280;19470;49.322;7.218;2022-08-19T08:40:20;98543.19;;;27.20;90.33
18275;BME280;19470;49.322;7.218;2022-08-19T08:42:54;98534.59;;;28.15;84.08
18275;BME280;19470;49.322;7.218;2022-08-19T08:45:26;98540.28;;;27.67;82.25
18275;BME280;19470;49.322;7.218;2022-08-19T08:47:55;98541.50;;;27.89;78.55
18275;BME280;19470;49.322;7.218;2022-08-19T08:50:29;98537.91;;;26.95;76.29
18275;BME280;19470;49.322;7.218;2022-08-19T08:52:58;98542.75;;;27.72;73.60
18275;BME280;19470;49.322;7.218;2022-08-19T08:55:27;98547.97;;;27.26;71.40
18275;BME280;19470;49.322;7.218;2022-08-19T08:57:59;98543.09;;;28.13;70.70
18275;BME280;19470;49.322;7.218;2022-08-19T09:00:31;98545.09;;;28.59;73.02
18275;BME280;19470;49.322;7.218;2022-08-19T09:02:59;98534.03;;;28.74;72.29
18275;BME280;19470;49.322;7.218;2022-08-19T09:05:42;98538.19;;;29.74;66.29
18275;BME280;19470;49.322;7.218;2022-08-19T09:08:18;98534.19;;;28.59;68.82
18275;BME280;19470;49.322;7.218;2022-08-19T09:10:51;98531.16;;;30.51;60.26
18275;BME280;19470;49.322;7.218;2022-08-19T09:13:38;98532.91;;;29.92;61.45
18275;BME280;19470;49.322;7.218;2022-08-19T09:16:11;98527.41;;;28.26;63.71
18275;BME280;19470;49.322;7.218;2022-08-19T09:18:40;98535.50;;;29.48;63.66
18275;BME280;19470;49.322;7.218;2022-08-19T09:21:08;98531.75;;;28.99;64.79
18275;BME280;19470;49.322;7.218;2022-08-19T09:23:35;98538.31;;;28.72;64.44
18275;BME280;19470;49.322;7.218;2022-08-19T09:26:06;98535.91;;;29.20;62.21
18275;BME280;19470;49.322;7.218;2022-08-19T09:28:33;98536.78;;;28.28;63.07
18275;BME280;19470;49.322;7.218;2022-08-19T09:31:01;98536.25;;;29.75;64.45
18275;BME280;19470;49.322;7.218;2022-08-19T09:33:27;98534.75;;;30.15;62.57
18275;BME280;19470;49.322;7.218;2022-08-19T09:36:02;98516.41;;;29.18;60.49
18275;BME280;19470;49.322;7.218;2022-08-19T09:38:29;98516.91;;;28.74;61.53
18275;BME280;19470;49.322;7.218;2022-08-19T09:40:56;98523.03;;;27.79;65.23
18275;BME280;19470;49.322;7.218;2022-08-19T09:43:22;98523.47;;;28.23;62.89
18275;BME280;19470;49.322;7.218;2022-08-19T09:45:52;98530.31;;;29.39;64.18
18275;BME280;19470;49.322;7.218;2022-08-19T09:48:19;98525.84;;;27.83;64.37
18275;BME280;19470;49.322;7.218;2022-08-19T09:50:46;98526.69;;;28.75;60.45
18275;BME280;19470;49.322;7.218;2022-08-19T09:53:12;98527.16;;;30.38;58.04
18275;BME280;19470;49.322;7.218;2022-08-19T09:55:41;98520.94;;;30.89;54.07
18275;BME280;19470;49.322;7.218;2022-08-19T09:58:08;98527.66;;;28.63;57.12
18275;BME280;19470;49.322;7.218;2022-08-19T10:00:37;98527.31;;;28.22;57.79
18275;BME280;19470;49.322;7.218;2022-08-19T10:03:03;98520.19;;;29.10;57.46
18275;BME280;19470;49.322;7.218;2022-08-19T10:05:31;98525.66;;;28.60;57.89
18275;BME280;19470;49.322;7.218;2022-08-19T10:08:18;98525.91;;;28.51;60.07
18275;BME280;19470;49.322;7.218;2022-08-19T10:10:45;98524.00;;;27.32;61.84
18275;BME280;19470;49.322;7.218;2022-08-19T10:13:14;98520.00;;;27.65;62.31
18275;BME280;19470;49.322;7.218;2022-08-19T10:15:40;98518.38;;;28.68;59.45
18275;BME280;19470;49.322;7.218;2022-08-19T10:18:07;98515.97;;;29.76;53.81
18275;BME280;19470;49.322;7.218;2022-08-19T10:20:35;98515.06;;;29.98;53.62
18275;BME280;19470;49.322;7.218;2022-08-19T10:23:02;98512.25;;;29.91;52.79
18275;BME280;19470;49.322;7.218;2022-08-19T10:25:28;98511.25;;;30.10;51.78
18275;BME280;19470;49.322;7.218;2022-08-19T10:27:55;98503.97;;;29.50;52.29
18275;BME280;19470;49.322;7.218;2022-08-19T10:30:21;98492.88;;;30.48;51.86
18275;BME280;19470;49.322;7.218;2022-08-19T10:32:48;98500.13;;;29.89;52.04
18275;BME280;19470;49.322;7.218;2022-08-19T10:35:14;98506.06;;;29.61;52.46
18275;BME280;19470;49.322;7.218;2022-08-19T10:37:43;98504.44;;;29.26;53.66
18275;BME280;19470;49.322;7.218;2022-08-19T10:40:10;98516.19;;;30.35;51.63
18275;BME280;19470;49.322;7.218;2022-08-19T10:42:37;98492.19;;;30.62;50.21
18275;BME280;19470;49.322;7.218;2022-08-19T10:45:05;98492.75;;;31.54;48.98
18275;BME280;19470;49.322;7.218;2022-08-19T10:47:32;98503.97;;;29.50;52.59
18275;BME280;19470;49.322;7.218;2022-08-19T10:49:59;98497.84;;;29.27;53.43
18275;BME280;19470;49.322;7.218;2022-08-19T10:52:47;98496.53;;;27.95;56.75
18275;BME280;19470;49.322;7.218;2022-08-19T10:55:14;98500.78;;;28.16;55.04
18275;BME280;19470;49.322;7.218;2022-08-19T10:57:58;98493.25;;;28.32;55.28
18275;BME280;19470;49.322;7.218;2022-08-19T11:00:24;98491.41;;;29.42;52.84
18275;BME280;19470;49.322;7.218;2022-08-19T11:02:51;98485.69;;;31.39;48.52
18275;BME280;19470;49.322;7.218;2022-08-19T11:05:18;98475.50;;;31.36;48.36
18275;BME280;19470;49.322;7.218;2022-08-19T11:07:46;98477.44;;;31.36;48.02
18275;BME280;19470;49.322;7.218;2022-08-19T11:10:15;98480.13;;;31.25;45.61
18275;BME280;19470;49.322;7.218;2022-08-19T11:12:44;98468.38;;;31.21;48.54
18275;BME280;19470;49.322;7.218;2022-08-19T11:15:11;98464.63;;;31.65;47.45
18275;BME280;19470;49.322;7.218;2022-08-19T11:17:38;98482.22;;;30.32;50.70
18275;BME280;19470;49.322;7.218;2022-08-19T11:20:09;98473.69;;;30.92;47.71
18275;BME280;19470;49.322;7.218;2022-08-19T11:22:36;98478.06;;;31.08;47.64
18275;BME280;19470;49.322;7.218;2022-08-19T11:25:05;98479.41;;;31.35;46.89
18275;BME280;19470;49.322;7.218;2022-08-19T11:27:31;98478.03;;;32.05;45.23
18275;BME280;19470;49.322;7.218;2022-08-19T11:29:58;98469.81;;;32.55;43.19
18275;BME280;19470;49.322;7.218;2022-08-19T11:32:25;98470.25;;;30.03;48.08
18275;BME280;19470;49.322;7.218;2022-08-19T11:34:52;98480.84;;;29.71;49.97
18275;BME280;19470;49.322;7.218;2022-08-19T11:37:19;98480.25;;;28.94;52.36
18275;BME280;19470;49.322;7.218;2022-08-19T11:39:46;98484.34;;;27.70;53.54
18275;BME280;19470;49.322;7.218;2022-08-19T11:42:14;98473.75;;;28.76;52.93
18275;BME280;19470;49.322;7.218;2022-08-19T11:44:58;98473.19;;;29.87;49.35
18275;BME280;19470;49.322;7.218;2022-08-19T11:47:24;98484.00;;;30.62;46.88
18275;BME280;19470;49.322;7.218;2022-08-19T11:49:51;98476.34;;;31.58;46.45
18275;BME280;19470;49.322;7.218;2022-08-19T11:52:18;98485.00;;;30.91;46.20
18275;BME280;19470;49.322;7.218;2022-08-19T11:54:44;98469.44;;;30.98;47.40
18275;BME280;19470;49.322;7.218;2022-08-19T11:57:11;98470.97;;;32.83;42.97
18275;BME280;19470;49.322;7.218;2022-08-19T11:59:42;98466.56;;;31.61;44.17
18275;BME280;19470;49.322;7.218;2022-08-19T12:02:08;98480.50;;;29.42;48.63
18275;BME280;19470;49.322;7.218;2022-08-19T12:04:35;98484.13;;;29.53;49.21
18275;BME280;19470;49.322;7.218;2022-08-19T12:07:02;98489.88;;;30.16;47.49
18275;BME280;19470;49.322;7.218;2022-08-19T12:09:30;98467.06;;;31.91;44.34
18275;BME280;19470;49.322;7.218;2022-08-19T12:11:56;98470.19;;;30.92;44.27
18275;BME280;19470;49.322;7.218;2022-08-19T12:14:23;98474.97;;;30.50;45.69
18275;BME280;19470;49.322;7.218;2022-08-19T12:16:51;98470.63;;;32.24;41.12
18275;BME280;19470;49.322;7.218;2022-08-19T12:19:17;98477.25;;;30.48;44.29
18275;BME280;19470;49.322;7.218;2022-08-19T12:21:44;98478.16;;;29.78;43.55
18275;BME280;19470;49.322;7.218;2022-08-19T12:24:10;98469.66;;;29.83;44.78
18275;BME280;19470;49.322;7.218;2022-08-19T12:26:37;98471.50;;;30.13;43.94
18275;BME280;19470;49.322;7.218;2022-08-19T12:29:04;98458.94;;;30.04;45.27
18275;BME280;19470;49.322;7.218;2022-08-19T12:31:30;98465.56;;;30.48;45.40
18275;BME280;19470;49.322;7.218;2022-08-19T12:33:58;98460.22;;;29.77;46.38
18275;BME280;19470;49.322;7.218;2022-08-19T12:36:27;98453.69;;;30.81;45.03
18275;BME280;19470;49.322;7.218;2022-08-19T12:38:54;98448.94;;;31.51;43.75
18275;BME280;19470;49.322;7.218;2022-08-19T12:41:20;98448.34;;;30.44;47.29
18275;BME280;19470;49.322;7.218;2022-08-19T12:43:48;98444.53;;;30.11;48.16
18275;BME280;19470;49.322;7.218;2022-08-19T12:46:15;98454.03;;;29.80;48.64
18275;BME280;19470;49.322;7.218;2022-08-19T12:48:42;98459.59;;;29.23;50.17
18275;BME280;19470;49.322;7.218;2022-08-19T12:51:14;98454.75;;;29.10;51.16
18275;BME280;19470;49.322;7.218;2022-08-19T12:53:41;98455.44;;;29.33;50.76
18275;BME280;19470;49.322;7.218;2022-08-19T12:56:08;98453.28;;;29.83;50.48
18275;BME280;19470;49.322;7.218;2022-08-19T12:58:35;98455.22;;;30.23;50.29